• Join FlightAware (Why Join?)
  • Login
  • US Flag 
12:08PM EDT


 

Airport Tracker/Info


-or-


 

Live Flight TrackerFlight Track Log ✈ AAL1283 ✈ 06-May-2013 ✈ KLAX - KSFO

Flight Track Log - Related Links

Times and Time Zones

All times are in EDT time to prevent confusion due to time zone crossing. See the AAL1283 flight status page for this flight to view local times or setup timezone preferences in your user account.

Time Position Orientation Groundspeed Altitude Reporting Facility
EDT Latitude Longitude Course Direction KTS MPH feet Rate Location/Type
11:40PM 33.9456 -118.4556 301° West 167 192 1,300  Level Los Angeles Center
11:41PM 33.9408 -118.5181 265° West 199 229 2,600 1,980 Climbing Los Angeles Center
11:42PM 34.0289 -118.7547 285° West  Level FlightAware Approximate
11:42PM 33.9344 -118.6033 265° West 235 270 5,400  Level Los Angeles Center
11:43PM 34.0593 -118.8734 296° West  Level FlightAware Approximate
11:43PM 33.9281 -118.6997 265° West 290 334 6,800  Level Los Angeles Center
11:44PM 34.0972 -118.9889 287° West  Level FlightAware Approximate
11:44PM 33.9222 -118.7756 265° West 310 357 9,300  Level Los Angeles Center
11:45PM 34.1325 -119.0983 301° West  Level FlightAware Approximate
11:45PM 33.9186 -118.9067 268° West 342 394 11,400  Level Los Angeles Center
11:46PM 33.9908 -119.0303 305° West 375 432 15,200 3,120 Climbing Los Angeles Center
11:47PM 34.0600 -119.1283 310° West 386 444 17,900 2,640 Climbing Los Angeles Center
11:48PM 34.1306 -119.2308 310° West 396 456 20,700 2,520 Climbing Los Angeles Center
11:49PM 34.2031 -119.3322 311° West 398 458 23,200 2,100 Climbing Los Angeles Center
11:50PM 34.2750 -119.4378 310° West 407 468 25,100 2,220 Climbing Los Angeles Center
11:51PM 34.3486 -119.5408 311° West 405 466 27,800 2,220 Climbing Los Angeles Center
11:52PM 34.4169 -119.6414 309° West 390 449 30,200 1,860 Climbing Los Angeles Center
11:53PM 34.5117 -119.7772 310° West 380 437 32,000 1,500 Climbing Los Angeles Center
11:54PM 34.5917 -119.8633 318° Northwest 382 440 33,600 1,200 Climbing Los Angeles Center
11:56PM 34.6794 -119.9567 319° Northwest 383 441 35,000 1,020 Climbing Los Angeles Center
11:57PM 34.7772 -120.0633 318° Northwest 392 451 36,000 420 Climbing Los Angeles Center
11:58PM 34.8694 -120.1653 318° Northwest 399 459 35,900 -60 Descending Los Angeles Center
11:59PM 34.9508 -120.2542 318° Northwest 396 456 35,900  Level Los Angeles Center
12:00AM 35.0322 -120.3436 318° Northwest 398 458 36,000  Climbing Los Angeles Center
12:01AM 35.1128 -120.4339 317° Northwest 397 457 35,900  Descending Los Angeles Center
12:02AM 35.2119 -120.5425 318° Northwest 400 460 36,000  Climbing Los Angeles Center
12:03AM 35.2942 -120.6358 317° Northwest 403 464 36,000  Level Los Angeles Center
12:04AM 35.3750 -120.7275 317° Northwest 408 470 36,000 -60 Level Oakland Center
12:05AM 35.4597 -120.8225 318° Northwest 410 472 35,900  Descending Oakland Center
12:06AM 35.5519 -120.9086 323° Northwest 417 480 36,000  Climbing Oakland Center
12:07AM 35.6469 -120.9911 325° Northwest 417 480 36,000  Level Oakland Center
12:08AM 35.7428 -121.0756 324° Northwest 420 483 36,000 -60 Level Oakland Center
12:09AM 35.8389 -121.1589 325° Northwest 421 484 35,900  Descending Oakland Center
12:10AM 35.9328 -121.2425 324° Northwest 419 482 36,000  Climbing Oakland Center
12:11AM 36.0289 -121.3261 325° Northwest 420 483 36,000 -780 Level Oakland Center
12:12AM 36.1264 -121.4125 324° Northwest 428 493 34,500 -2,460 Descending Oakland Center
12:13AM 36.2267 -121.5031 324° Northwest 441 507 31,000 -3,300 Descending Oakland Center
12:14AM 36.3294 -121.5922 325° Northwest 448 516 27,800 -3,240 Descending Oakland Center
12:15AM 36.4483 -121.6989 324° Northwest 442 509 24,500 -2,940 Descending Oakland Center
12:16AM 36.5436 -121.7844 324° Northwest 428 493 21,900 -2,400 Descending Oakland Center
12:17AM 36.6167 -121.8500 324° Northwest 407 468 20,000 -1,680 Descending Northern Cal TRACON
12:18AM 36.7167 -121.9333 326° Northwest 383 441 18,800 -2,160 Descending Northern Cal TRACON
12:19AM 36.8000 -121.9833 334° Northwest 393 452 15,900 -3,060 Descending Northern Cal TRACON
12:20AM 36.9167 -122.0167 347° North 374 430 12,700 -2,460 Descending Northern Cal TRACON
12:21AM 37.0000 -122.0500 342° North 353 406 10,800 -1,380 Descending Northern Cal TRACON
12:22AM 37.0500 -122.1333 307° West 304 350 10,000 -420 Descending Northern Cal TRACON
12:23AM 37.1000 -122.2167 307° West 253 291 10,000  Level Northern Cal TRACON
12:24AM 37.1333 -122.2833 302° West 252 290 10,000  Level Northern Cal TRACON
12:25AM 37.1833 -122.3500 313° West 250 288 10,000  Level Northern Cal TRACON
12:25AM 37.1881 -122.3636 294° West 248 285 10,000 -600 Level Oakland Center
12:26AM 37.2481 -122.4061 331° Northwest 248 285 9,300 -1,080 Descending Oakland Center
12:27AM 37.3119 -122.4428 335° Northwest 251 289 7,900 -1,440 Descending Oakland Center
12:28AM 37.3525 -122.3986 41° Northeast 236 272 6,400 -960 Descending Oakland Center
12:29AM 37.3717 -122.3258 72° East 226 260 6,000 -240 Descending Oakland Center
12:30AM 37.3897 -122.2533 73° East 220 253 6,000 -600 Level Oakland Center
12:31AM 37.4378 -122.1939 44° Northeast 230 265 4,800 -1,320 Descending Oakland Center
12:32AM 37.5017 -122.1894 North 230 265 3,400 -1,260 Descending Oakland Center
12:33AM 37.5547 -122.2239 333° Northwest 222 255 2,300 -1,080 Descending Oakland Center
12:34AM 37.5806 -122.2844 298° West 204 235 1,300 -960 Descending Oakland Center
12:35AM 37.6003 -122.3333 297° West 179 206 400 -900 Descending Oakland Center